createdAt,value
2018-03-30T00:02:24.283Z,10.93
2018-03-30T00:04:52.035Z,9.57
2018-03-30T00:07:19.486Z,9.18
2018-03-30T00:09:55.860Z,9.85
2018-03-30T00:12:23.623Z,8.38
2018-03-30T00:14:51.080Z,9.32
2018-03-30T00:17:18.547Z,10.07
2018-03-30T00:19:46.004Z,8.38
2018-03-30T00:22:13.696Z,8.70
2018-03-30T00:24:41.152Z,9.38
2018-03-30T00:27:08.712Z,9.18
2018-03-30T00:29:36.375Z,8.80
2018-03-30T00:32:03.832Z,8.15
2018-03-30T00:34:31.367Z,7.93
2018-03-30T00:36:59.124Z,9.02
2018-03-30T00:39:26.811Z,8.90
2018-03-30T00:41:55.271Z,8.95
2018-03-30T00:44:22.812Z,8.25
2018-03-30T00:46:50.495Z,9.05
2018-03-30T00:49:18.264Z,8.23
2018-03-30T00:51:45.723Z,8.05
2018-03-30T00:54:13.479Z,7.53
2018-03-30T00:56:41.074Z,8.77
2018-03-30T00:59:09.296Z,8.00
2018-03-30T01:01:36.747Z,8.70
2018-03-30T01:04:04.216Z,8.95
2018-03-30T01:06:31.691Z,7.45
2018-03-30T01:08:59.164Z,8.85
2018-03-30T01:11:26.628Z,9.35
2018-03-30T01:13:54.376Z,7.05
2018-03-30T01:16:21.845Z,7.03
2018-03-30T01:18:49.595Z,7.95
2018-03-30T01:21:17.362Z,8.13
2018-03-30T01:23:45.128Z,6.87
2018-03-30T01:26:12.799Z,8.35
2018-03-30T01:28:40.252Z,9.02
2018-03-30T01:31:07.731Z,6.85
2018-03-30T01:33:35.270Z,7.35
2018-03-30T01:36:02.736Z,6.93
2018-03-30T01:38:30.488Z,6.75
2018-03-30T01:40:58.206Z,7.00
2018-03-30T01:43:25.660Z,7.10
2018-03-30T01:45:53.132Z,7.35
2018-03-30T01:48:20.632Z,6.70
2018-03-30T01:50:48.087Z,6.68
2018-03-30T01:53:15.549Z,7.07
2018-03-30T01:55:43.220Z,7.07
2018-03-30T01:58:10.687Z,7.62
2018-03-30T02:00:38.135Z,6.37
2018-03-30T02:03:06.612Z,7.37
2018-03-30T02:05:34.378Z,6.62
2018-03-30T02:08:01.824Z,5.00
2018-03-30T02:10:29.593Z,5.70
2018-03-30T02:12:57.356Z,5.53
2018-03-30T02:15:24.817Z,6.22
2018-03-30T02:17:52.263Z,5.30
2018-03-30T02:20:19.724Z,5.18
2018-03-30T02:22:47.503Z,6.05
2018-03-30T02:25:15.180Z,5.97
2018-03-30T02:27:42.723Z,4.93
2018-03-30T02:30:10.176Z,6.22
2018-03-30T02:32:37.635Z,6.35
2018-03-30T02:35:05.107Z,5.22
2018-03-30T02:37:32.557Z,5.60
2018-03-30T02:40:00.019Z,6.78
2018-03-30T02:42:27.489Z,5.93
2018-03-30T02:44:55.236Z,5.60
2018-03-30T02:47:22.694Z,6.25
2018-03-30T02:49:50.202Z,6.25
2018-03-30T02:52:17.875Z,5.70
2018-03-30T02:54:45.328Z,5.47
2018-03-30T02:57:12.827Z,5.00
2018-03-30T02:59:40.593Z,4.93
2018-03-30T03:02:08.049Z,5.72
2018-03-30T03:04:35.808Z,5.28
2018-03-30T03:07:03.282Z,5.57
2018-03-30T03:09:30.737Z,5.43
2018-03-30T03:11:58.197Z,5.50
2018-03-30T03:14:25.656Z,4.53
2018-03-30T03:16:54.643Z,5.03
2018-03-30T03:19:22.408Z,5.47
2018-03-30T03:21:49.872Z,5.15
2018-03-30T03:24:17.568Z,4.28
2018-03-30T03:26:45.002Z,3.55
2018-03-30T03:29:12.469Z,4.45
2018-03-30T03:31:40.017Z,5.35
2018-03-30T03:34:07.680Z,4.55
2018-03-30T03:36:35.136Z,3.90
2018-03-30T03:39:02.684Z,5.30
2018-03-30T03:41:30.448Z,5.18
2018-03-30T03:43:57.912Z,5.90
2018-03-30T03:46:25.379Z,4.95
2018-03-30T03:48:53.133Z,4.90
2018-03-30T03:51:20.588Z,4.90
2018-03-30T03:53:48.048Z,5.57
2018-03-30T03:56:15.513Z,5.40
2018-03-30T03:58:43.272Z,6.25
2018-03-30T04:01:11.038Z,4.45
2018-03-30T04:03:38.711Z,6.15
2018-03-30T04:06:06.177Z,5.53
2018-03-30T04:08:33.628Z,5.78
2018-03-30T04:11:01.084Z,5.15
2018-03-30T04:13:29.312Z,5.45
2018-03-30T04:15:57.012Z,4.75
2018-03-30T04:18:24.472Z,5.35
2018-03-30T04:20:51.915Z,5.40
2018-03-30T04:23:19.375Z,5.37
2018-03-30T04:25:47.149Z,5.15
2018-03-30T04:28:14.604Z,5.55
2018-03-30T04:30:42.062Z,5.00
2018-03-30T04:33:09.682Z,4.97
2018-03-30T04:35:37.133Z,5.50
2018-03-30T04:38:04.603Z,5.55
2018-03-30T04:40:32.207Z,6.72
2018-03-30T04:42:59.976Z,6.90
2018-03-30T04:45:27.432Z,5.90
2018-03-30T04:47:54.887Z,6.18
2018-03-30T04:50:22.339Z,6.10
2018-03-30T04:52:51.497Z,6.32
2018-03-30T04:55:19.053Z,7.15
2018-03-30T04:57:46.718Z,7.20
2018-03-30T05:00:14.177Z,6.22
2018-03-30T05:02:41.696Z,5.87
2018-03-30T05:05:10.136Z,8.20
2018-03-30T05:07:37.628Z,6.53
2018-03-30T05:10:05.088Z,6.78
2018-03-30T05:12:32.535Z,6.70
2018-03-30T05:14:59.993Z,6.62
2018-03-30T05:17:27.760Z,6.90
2018-03-30T05:19:55.239Z,7.32
2018-03-30T05:22:22.900Z,7.37
2018-03-30T05:24:51.215Z,6.80
2018-03-30T05:27:18.687Z,8.05
2018-03-30T05:29:46.135Z,6.53
2018-03-30T05:32:13.690Z,7.72
2018-03-30T05:34:41.146Z,7.95
2018-03-30T05:37:08.608Z,7.75
2018-03-30T05:39:36.091Z,7.20
2018-03-30T05:42:03.556Z,10.25
2018-03-30T05:44:31.008Z,8.93
2018-03-30T05:46:58.688Z,7.45
2018-03-30T05:49:26.142Z,8.55
2018-03-30T05:51:53.643Z,9.02
2018-03-30T05:54:21.162Z,8.05
2018-03-30T05:56:48.619Z,8.10
2018-03-30T05:59:16.079Z,8.90
2018-03-30T06:01:43.532Z,9.60
2018-03-30T06:04:11.112Z,8.93
2018-03-30T06:06:39.375Z,9.55
2018-03-30T06:09:06.823Z,8.25
2018-03-30T06:11:34.288Z,9.07
2018-03-30T06:14:01.753Z,10.27
2018-03-30T06:16:29.381Z,9.13
2018-03-30T06:18:56.928Z,9.88
2018-03-30T06:21:24.452Z,9.50
2018-03-30T06:23:52.669Z,9.90
2018-03-30T06:26:20.147Z,8.88
2018-03-30T06:28:47.688Z,8.65
2018-03-30T06:31:15.200Z,8.40
2018-03-30T06:33:42.957Z,8.88
2018-03-30T06:36:10.439Z,8.55
2018-03-30T06:38:37.890Z,8.30
2018-03-30T06:41:05.788Z,8.52
2018-03-30T06:43:33.306Z,8.95
2018-03-30T06:46:00.855Z,9.10
2018-03-30T06:48:28.307Z,8.45
2018-03-30T06:50:55.784Z,8.82
2018-03-30T06:53:23.545Z,7.43
2018-03-30T06:55:51.301Z,8.65
2018-03-30T06:58:19.064Z,8.30
2018-03-30T07:00:46.827Z,9.75
2018-03-30T07:03:14.283Z,8.63
2018-03-30T07:05:41.902Z,7.82
2018-03-30T07:08:09.509Z,8.07
2018-03-30T07:10:37.271Z,8.82
2018-03-30T07:13:04.732Z,8.88
2018-03-30T07:15:32.187Z,8.73
2018-03-30T07:17:59.657Z,7.05
2018-03-30T07:20:27.104Z,6.00
2018-03-30T07:22:54.871Z,7.07
2018-03-30T07:25:22.328Z,6.65
2018-03-30T07:27:50.082Z,5.25
2018-03-30T07:30:17.877Z,5.47
2018-03-30T07:32:45.628Z,5.90
2018-03-30T07:35:13.163Z,5.72
2018-03-30T07:37:40.762Z,4.45
2018-03-30T07:40:08.307Z,5.43
2018-03-30T07:42:35.760Z,5.47
2018-03-30T07:45:03.220Z,6.50
2018-03-30T07:47:30.984Z,5.45
2018-03-30T07:49:58.777Z,5.47
2018-03-30T07:52:26.517Z,5.22
2018-03-30T07:54:53.971Z,5.62
2018-03-30T07:57:21.439Z,5.22
2018-03-30T07:59:49.200Z,5.90
2018-03-30T08:02:16.659Z,5.62
2018-03-30T08:04:44.419Z,5.50
2018-03-30T08:07:11.866Z,5.82
2018-03-30T08:09:39.352Z,4.68
2018-03-30T08:12:06.816Z,5.40
2018-03-30T08:14:34.561Z,5.60
2018-03-30T08:17:02.253Z,6.28
2018-03-30T08:19:29.756Z,5.22
2018-03-30T08:21:57.224Z,5.12
2018-03-30T08:24:24.688Z,5.90
2018-03-30T08:26:52.156Z,4.53
2018-03-30T08:29:19.630Z,5.55
2018-03-30T08:31:47.092Z,5.40
2018-03-30T08:34:14.745Z,4.18
2018-03-30T08:36:42.292Z,4.50
2018-03-30T08:39:10.064Z,4.40
2018-03-30T08:41:37.532Z,4.55
2018-03-30T08:44:04.999Z,4.13
2018-03-30T08:46:32.460Z,4.07
2018-03-30T08:49:00.200Z,3.93
2018-03-30T08:51:27.785Z,4.43
2018-03-30T08:53:56.015Z,4.70
2018-03-30T08:56:23.487Z,5.07
2018-03-30T08:58:50.988Z,5.20
2018-03-30T09:01:18.877Z,4.97
2018-03-30T09:03:46.345Z,5.30
2018-03-30T09:06:13.852Z,4.23
2018-03-30T09:08:41.399Z,4.53
2018-03-30T09:11:09.097Z,4.40
2018-03-30T09:13:36.549Z,4.90
2018-03-30T09:16:04.080Z,5.13
2018-03-30T09:18:31.762Z,3.83
2018-03-30T09:20:59.309Z,4.43
2018-03-30T09:23:26.772Z,3.90
2018-03-30T09:25:54.292Z,4.60
2018-03-30T09:28:21.759Z,5.10
2018-03-30T09:30:49.469Z,5.07
2018-03-30T09:33:23.352Z,3.70
2018-03-30T09:35:52.324Z,4.07
2018-03-30T09:38:19.784Z,4.37
2018-03-30T09:40:47.249Z,3.80
2018-03-30T09:43:14.721Z,3.27
2018-03-30T09:45:42.183Z,2.70
2018-03-30T09:48:09.963Z,2.67
2018-03-30T09:50:37.624Z,2.03
2018-03-30T09:53:05.163Z,1.90
2018-03-30T09:55:32.632Z,1.60
2018-03-30T09:58:00.352Z,1.60
2018-03-30T10:00:27.803Z,1.60
2018-03-30T10:02:55.264Z,1.97
2018-03-30T10:05:22.725Z,2.10
2018-03-30T10:07:50.184Z,1.23
2018-03-30T10:10:17.684Z,1.90
2018-03-30T10:12:45.140Z,1.53
2018-03-30T10:15:12.599Z,1.63
2018-03-30T10:17:40.363Z,1.60
2018-03-30T10:20:07.831Z,1.63
2018-03-30T10:22:35.585Z,1.77
2018-03-30T10:25:03.348Z,1.40
2018-03-30T10:27:31.112Z,1.57
2018-03-30T10:29:58.801Z,1.57
2018-03-30T10:32:26.274Z,1.60
2018-03-30T10:34:53.798Z,1.70
2018-03-30T10:37:21.559Z,1.77
2018-03-30T10:39:49.019Z,2.00
2018-03-30T10:42:16.473Z,2.00
2018-03-30T10:44:45.776Z,2.10
2018-03-30T10:47:14.739Z,1.87
2018-03-30T10:49:42.227Z,1.93
2018-03-30T10:52:09.774Z,1.60
2018-03-30T10:54:37.233Z,2.27
2018-03-30T10:57:04.837Z,2.03
2018-03-30T10:59:32.287Z,2.20
2018-03-30T11:01:59.825Z,1.23
2018-03-30T11:04:27.275Z,2.07
2018-03-30T11:06:55.029Z,2.00
2018-03-30T11:09:22.726Z,1.67
2018-03-30T11:11:50.248Z,2.10
2018-03-30T11:14:17.741Z,2.10
2018-03-30T11:16:45.320Z,1.47
2018-03-30T11:19:13.571Z,1.80
2018-03-30T11:21:41.259Z,2.23
2018-03-30T11:24:08.793Z,1.30
2018-03-30T11:26:36.248Z,1.70
2018-03-30T11:29:04.020Z,1.60
2018-03-30T11:31:31.480Z,1.43
2018-03-30T11:33:58.939Z,1.73
2018-03-30T11:36:26.604Z,1.70
2018-03-30T11:38:54.068Z,2.00
2018-03-30T11:41:21.612Z,1.30
2018-03-30T11:43:49.376Z,2.10
2018-03-30T11:46:17.138Z,1.63
2018-03-30T11:48:44.615Z,1.43
2018-03-30T11:51:12.063Z,2.10
2018-03-30T11:53:39.736Z,1.70
2018-03-30T11:56:07.200Z,1.63
2018-03-30T11:58:34.662Z,2.03
2018-03-30T12:01:02.112Z,2.77
2018-03-30T12:03:29.576Z,1.77
2018-03-30T12:05:57.041Z,1.67
2018-03-30T12:08:24.491Z,1.80
2018-03-30T12:10:52.160Z,1.53
2018-03-30T12:13:20.375Z,2.03
2018-03-30T12:15:47.828Z,1.63
2018-03-30T12:18:15.299Z,2.00
2018-03-30T12:20:42.772Z,1.53
2018-03-30T12:23:10.231Z,1.80
2018-03-30T12:25:37.684Z,1.87
2018-03-30T12:28:05.163Z,1.63
2018-03-30T12:30:32.615Z,1.40
2018-03-30T12:33:00.072Z,1.83
2018-03-30T12:35:27.534Z,1.50
2018-03-30T12:37:55.295Z,1.80
2018-03-30T12:40:23.060Z,1.97
2018-03-30T12:42:50.680Z,1.90
2018-03-30T12:45:18.196Z,1.63
2018-03-30T12:47:45.749Z,1.87
2018-03-30T12:50:13.213Z,1.60
2018-03-30T12:52:40.968Z,2.13
2018-03-30T12:55:09.279Z,2.60
2018-03-30T12:57:36.812Z,2.17
2018-03-30T13:00:04.568Z,2.20
2018-03-30T13:02:32.333Z,2.00
2018-03-30T13:04:59.797Z,1.47
2018-03-30T13:07:27.257Z,2.20
2018-03-30T13:09:55.011Z,2.23
2018-03-30T13:12:22.478Z,2.43
2018-03-30T13:14:50.245Z,2.57
2018-03-30T13:17:17.696Z,2.67
2018-03-30T13:19:45.168Z,2.90
2018-03-30T13:22:12.922Z,2.43
2018-03-30T13:24:41.912Z,2.90
2018-03-30T13:27:09.380Z,2.70
2018-03-30T13:29:37.044Z,2.83
2018-03-30T13:32:04.592Z,2.83
2018-03-30T13:34:32.052Z,2.10
2018-03-30T13:36:59.549Z,2.57
2018-03-30T13:39:27.811Z,2.13
2018-03-30T13:41:55.272Z,3.10
2018-03-30T13:44:22.831Z,1.77
2018-03-30T13:46:50.567Z,2.30
2018-03-30T13:49:19.564Z,2.10
2018-03-30T13:51:53.471Z,2.47
2018-03-30T13:54:31.840Z,1.67
2018-03-30T13:57:07.743Z,1.90
2018-03-30T13:59:35.200Z,2.67
2018-03-30T14:02:09.324Z,2.30
2018-03-30T14:04:44.405Z,2.77
2018-03-30T14:10:12.659Z,2.47
2018-03-30T14:12:50.008Z,2.40
2018-03-30T14:15:18.315Z,1.90
2018-03-30T14:18:06.356Z,2.13
2018-03-30T14:20:33.829Z,1.77
2018-03-30T14:23:19.788Z,2.20
2018-03-30T14:25:50.851Z,2.40
2018-03-30T14:28:22.917Z,2.23
2018-03-30T14:31:15.156Z,2.60
2018-03-30T14:33:42.724Z,2.50
2018-03-30T14:39:33.627Z,2.37
2018-03-30T14:42:01.084Z,2.40
2018-03-30T14:44:43.522Z,2.40
2018-03-30T14:47:12.512Z,2.30
2018-03-30T14:49:40.840Z,2.13
2018-03-30T14:52:24.316Z,2.00
2018-03-30T14:54:55.584Z,1.80
2018-03-30T14:57:27.528Z,1.97
2018-03-30T14:59:57.004Z,1.67
2018-03-30T15:02:31.920Z,1.93
2018-03-30T15:05:01.576Z,2.30
2018-03-30T15:07:50.652Z,1.97
2018-03-30T15:10:33.976Z,2.00
2018-03-30T15:13:14.035Z,1.70
2018-03-30T15:15:42.971Z,2.07
2018-03-30T15:18:20.620Z,2.10
2018-03-30T15:20:50.820Z,2.43
2018-03-30T15:23:36.112Z,2.10
2018-03-30T15:26:06.498Z,2.37
2018-03-30T15:28:36.563Z,2.97
2018-03-30T15:34:02.483Z,1.80
2018-03-30T15:36:43.500Z,2.07
2018-03-30T15:39:10.982Z,2.20
2018-03-30T15:41:39.316Z,1.93
2018-03-30T15:44:07.084Z,2.37
2018-03-30T15:46:35.468Z,2.57
2018-03-30T15:49:03.133Z,3.17
2018-03-30T15:51:35.971Z,2.53
2018-03-30T15:54:03.056Z,2.50
2018-03-30T15:56:36.351Z,2.23
2018-03-30T15:59:04.113Z,2.40
2018-03-30T16:01:31.571Z,2.30
2018-03-30T16:03:59.036Z,2.33
2018-03-30T16:06:26.499Z,2.37
2018-03-30T16:08:54.256Z,2.20
2018-03-30T16:11:25.200Z,2.00
2018-03-30T16:13:52.855Z,2.50
2018-03-30T16:16:20.341Z,2.53
2018-03-30T16:18:56.469Z,2.03
2018-03-30T16:21:23.433Z,2.67
2018-03-30T16:23:50.680Z,2.73
2018-03-30T16:26:17.652Z,1.83
2018-03-30T16:28:45.399Z,2.10
2018-03-30T16:31:12.508Z,2.17
2018-03-30T16:33:39.480Z,1.87
2018-03-30T16:36:06.743Z,2.00
2018-03-30T16:38:33.887Z,1.60
2018-03-30T16:41:00.867Z,2.10
2018-03-30T16:43:28.682Z,1.90
2018-03-30T16:45:55.656Z,2.60
2018-03-30T16:48:22.898Z,2.30
2018-03-30T16:50:50.007Z,1.90
2018-03-30T16:53:16.932Z,1.97
2018-03-30T16:55:44.256Z,1.90
2018-03-30T16:58:11.480Z,2.70
2018-03-30T17:00:38.452Z,2.20
2018-03-30T17:03:05.446Z,1.83
2018-03-30T17:05:32.411Z,2.00
2018-03-30T17:07:59.380Z,1.70
2018-03-30T17:10:26.359Z,2.10
2018-03-30T17:12:54.316Z,1.87
2018-03-30T17:15:21.279Z,2.37
2018-03-30T17:17:48.607Z,1.97
2018-03-30T17:20:15.599Z,2.40
2018-03-30T17:22:42.603Z,2.50
2018-03-30T17:25:09.844Z,2.50
2018-03-30T17:27:36.972Z,1.93
2018-03-30T17:30:04.060Z,2.40
2018-03-30T17:32:31.035Z,2.33
2018-03-30T17:34:58.129Z,2.73
2018-03-30T17:37:25.117Z,1.90
2018-03-30T17:39:52.112Z,1.90
2018-03-30T17:42:19.100Z,2.30
2018-03-30T17:44:46.067Z,1.90
2018-03-30T17:47:13.188Z,1.50
2018-03-30T17:49:40.213Z,2.33
2018-03-30T17:52:07.506Z,2.23
2018-03-30T17:54:34.649Z,1.93
2018-03-30T17:57:01.710Z,1.90
2018-03-30T17:59:28.947Z,2.10
2018-03-30T18:01:55.920Z,2.23
2018-03-30T18:04:23.656Z,2.50
2018-03-30T18:06:50.635Z,2.20
2018-03-30T18:09:17.704Z,2.23
2018-03-30T18:11:44.675Z,2.40
2018-03-30T18:14:11.658Z,3.27
2018-03-30T18:16:39.392Z,3.30
2018-03-30T18:19:06.376Z,3.47
2018-03-30T18:21:33.360Z,3.47
2018-03-30T18:24:00.329Z,2.97
2018-03-30T18:26:27.600Z,4.17
2018-03-30T18:28:56.293Z,3.50
2018-03-30T18:31:23.269Z,2.87
2018-03-30T18:33:50.239Z,4.10
2018-03-30T18:36:17.436Z,3.10
2018-03-30T18:38:44.412Z,4.27
2018-03-30T18:41:11.412Z,5.60
2018-03-30T18:43:38.580Z,3.40
2018-03-30T18:46:05.547Z,4.60
2018-03-30T18:48:33.289Z,4.33
2018-03-30T18:51:00.336Z,4.43
2018-03-30T18:53:27.464Z,4.13
2018-03-30T18:55:54.428Z,3.57
2018-03-30T18:58:21.476Z,3.10
2018-03-30T19:00:48.451Z,3.63
2018-03-30T19:03:16.188Z,4.03
2018-03-30T19:05:43.167Z,3.83
2018-03-30T19:08:10.392Z,3.73
2018-03-30T19:10:37.431Z,3.73
2018-03-30T19:13:04.696Z,3.87
2018-03-30T19:15:31.668Z,3.77
2018-03-30T19:17:59.612Z,4.73
2018-03-30T19:20:26.759Z,4.60
2018-03-30T19:22:53.924Z,5.87
2018-03-30T19:25:21.068Z,5.10
2018-03-30T19:27:48.215Z,5.77
2018-03-30T19:30:15.377Z,5.70
2018-03-30T19:32:42.355Z,6.20
2018-03-30T19:35:09.369Z,5.90
2018-03-30T19:37:36.340Z,5.00
2018-03-30T19:40:03.330Z,6.63
2018-03-30T19:42:30.403Z,5.27
2018-03-30T19:44:57.384Z,5.90
2018-03-30T19:47:25.192Z,4.20
2018-03-30T19:49:52.190Z,4.97
2018-03-30T19:52:19.167Z,4.87
2018-03-30T19:54:46.260Z,4.73
2018-03-30T19:57:13.408Z,4.03
2018-03-30T19:59:40.380Z,2.70
2018-03-30T20:02:08.128Z,4.00
2018-03-30T20:04:35.108Z,3.10
2018-03-30T20:07:02.096Z,4.20
2018-03-30T20:09:29.164Z,4.60
2018-03-30T20:11:56.151Z,3.37
2018-03-30T20:14:23.124Z,4.33
2018-03-30T20:16:50.309Z,4.00
2018-03-30T20:19:17.468Z,3.87
2018-03-30T20:21:44.458Z,3.90
2018-03-30T20:24:11.429Z,3.15
2018-03-30T20:26:38.404Z,3.20
2018-03-30T20:29:05.385Z,4.57
2018-03-30T20:31:32.364Z,3.58
2018-03-30T20:33:59.331Z,3.70
2018-03-30T20:36:26.318Z,4.25
2018-03-30T20:38:53.292Z,4.15
2018-03-30T20:41:20.277Z,4.57
2018-03-30T20:43:47.252Z,3.40
2018-03-30T20:46:15.045Z,4.00
2018-03-30T20:48:42.122Z,3.85
2018-03-30T20:51:09.083Z,4.30
2018-03-30T20:53:36.340Z,3.08
2018-03-30T20:56:03.493Z,3.95
2018-03-30T20:58:30.456Z,3.85
2018-03-30T21:00:58.417Z,4.10
2018-03-30T21:03:25.557Z,4.25
2018-03-30T21:05:52.531Z,3.85
2018-03-30T21:08:20.311Z,4.03
2018-03-30T21:10:48.092Z,4.30
2018-03-30T21:13:15.067Z,3.30
2018-03-30T21:15:42.044Z,4.35
2018-03-30T21:18:09.779Z,4.50
2018-03-30T21:20:36.848Z,3.35
2018-03-30T21:23:04.016Z,2.40
2018-03-30T21:25:31.767Z,1.62
2018-03-30T21:27:58.914Z,1.90
2018-03-30T21:30:25.892Z,1.95
2018-03-30T21:32:52.875Z,1.77
2018-03-30T21:35:19.864Z,1.60
2018-03-30T21:37:46.841Z,2.00
2018-03-30T21:40:13.815Z,1.35
2018-03-30T21:42:40.783Z,1.98
2018-03-30T21:45:07.760Z,1.55
2018-03-30T21:47:34.731Z,1.65
2018-03-30T21:50:01.703Z,1.52
2018-03-30T21:52:28.684Z,1.83
2018-03-30T21:54:55.914Z,1.40
2018-03-30T21:57:22.872Z,1.27
2018-03-30T21:59:50.032Z,2.00
2018-03-30T22:02:17.179Z,1.23
2018-03-30T22:04:44.147Z,1.35
2018-03-30T22:07:11.892Z,1.62
2018-03-30T22:09:38.936Z,1.75
2018-03-30T22:12:05.902Z,1.90
2018-03-30T22:14:33.860Z,1.60
2018-03-30T22:17:01.008Z,1.80
2018-03-30T22:19:28.152Z,1.90
2018-03-30T22:21:55.136Z,1.87
2018-03-30T22:24:22.104Z,2.17
2018-03-30T22:26:49.082Z,2.12
2018-03-30T22:29:16.068Z,1.87
2018-03-30T22:31:43.293Z,2.00
2018-03-30T22:34:10.264Z,1.98
2018-03-30T22:36:38.213Z,2.17
2018-03-30T22:39:05.435Z,2.00
2018-03-30T22:41:32.512Z,2.10
2018-03-30T22:43:59.660Z,2.30
2018-03-30T22:46:26.632Z,2.35
2018-03-30T22:48:54.585Z,2.60
2018-03-30T22:51:21.566Z,2.50
2018-03-30T22:53:48.637Z,2.70
2018-03-30T22:56:15.610Z,2.20
2018-03-30T22:58:42.880Z,2.78
2018-03-30T23:01:09.844Z,2.60
2018-03-30T23:03:37.788Z,2.10
2018-03-30T23:06:04.769Z,2.17
2018-03-30T23:08:32.508Z,2.55
2018-03-30T23:10:59.485Z,2.25
2018-03-30T23:13:26.453Z,2.42
2018-03-30T23:15:53.545Z,2.60
2018-03-30T23:18:20.528Z,2.92
2018-03-30T23:20:47.535Z,2.78
2018-03-30T23:23:16.038Z,2.67
2018-03-30T23:25:43.782Z,2.67
2018-03-30T23:28:10.833Z,2.78
2018-03-30T23:30:37.795Z,2.45
2018-03-30T23:33:05.531Z,2.83
2018-03-30T23:35:32.512Z,3.80
2018-03-30T23:37:59.478Z,3.80
2018-03-30T23:40:26.549Z,4.50
2018-03-30T23:42:53.523Z,4.60
2018-03-30T23:45:20.495Z,4.85
2018-03-30T23:47:47.472Z,4.60
2018-03-30T23:50:14.443Z,5.12
2018-03-30T23:52:41.427Z,4.78
2018-03-30T23:55:08.404Z,3.00
2018-03-30T23:57:35.407Z,3.22
